CheckWX is a tool to help pilots better visualize weather data.  It is not intended as a substitute for an official pre-flight weather briefing.

14:47:32 UTC

EGSH TAF
Norwich International Airport
Norwich, United Kingdom
TAF EGSH 231357Z 2315/2324 03006KT 9999 FEW045

Mar-23@
15:00 UTC

Mar-23 @ 15:00 UTC

Mar-24@
00:00 UTC

Mar-24 @ 00:00 UTC

TAF EGSH 231357Z 2315/2324 03006KT 9999 FEW045
Wind
  • 030° at 6 KTS
Cloud Levels
  • Few at 4,500' AGL